createdAt,value
2018-09-13T00:00:32.163Z,8.17
2018-09-13T00:02:35.934Z,8.63
2018-09-13T00:04:39.503Z,13.03
2018-09-13T00:06:43.134Z,12.30
2018-09-13T00:08:47.066Z,8.53
2018-09-13T00:10:50.611Z,10.00
2018-09-13T00:12:54.229Z,9.40
2018-09-13T00:14:57.834Z,10.97
2018-09-13T00:17:01.413Z,8.43
2018-09-13T00:19:05.084Z,9.53
2018-09-13T00:21:08.723Z,9.77
2018-09-13T00:23:12.260Z,12.87
2018-09-13T00:25:15.910Z,12.90
2018-09-13T00:27:19.425Z,9.20
2018-09-13T00:29:23.120Z,9.73
2018-09-13T00:31:26.715Z,8.27
2018-09-13T00:33:30.435Z,6.87
2018-09-13T00:35:34.104Z,12.50
2018-09-13T00:37:37.731Z,9.93
2018-09-13T00:39:41.288Z,8.93
2018-09-13T00:41:44.849Z,8.63
2018-09-13T00:43:48.516Z,9.17
2018-09-13T00:45:52.084Z,8.23
2018-09-13T00:47:55.702Z,8.70
2018-09-13T00:49:59.293Z,7.93
2018-09-13T00:52:02.865Z,8.63
2018-09-13T00:54:06.641Z,9.60
2018-09-13T00:56:10.164Z,9.17
2018-09-13T00:58:13.741Z,8.57
2018-09-13T01:00:17.359Z,7.33
2018-09-13T01:02:20.889Z,7.33
2018-09-13T01:04:24.603Z,6.50
2018-09-13T01:06:28.189Z,14.13
2018-09-13T01:08:31.878Z,8.27
2018-09-13T01:10:35.645Z,8.67
2018-09-13T01:12:39.224Z,6.00
2018-09-13T01:14:42.853Z,8.43
2018-09-13T01:16:46.467Z,10.63
2018-09-13T01:18:50.053Z,6.10
2018-09-13T01:20:53.807Z,9.30
2018-09-13T01:22:57.472Z,9.77
2018-09-13T01:25:01.156Z,8.73
2018-09-13T01:27:04.757Z,6.27
2018-09-13T01:29:08.313Z,7.87
2018-09-13T01:31:11.883Z,7.13
2018-09-13T01:33:15.684Z,5.60
2018-09-13T01:35:19.323Z,6.93
2018-09-13T01:37:22.895Z,6.00
2018-09-13T01:39:26.598Z,7.80
2018-09-13T01:41:30.158Z,6.83
2018-09-13T01:43:33.718Z,6.27
2018-09-13T01:45:37.294Z,6.77
2018-09-13T01:47:40.819Z,8.37
2018-09-13T01:49:44.435Z,7.87
2018-09-13T01:51:47.988Z,10.77
2018-09-13T01:53:51.626Z,8.27
2018-09-13T01:55:55.261Z,7.00
2018-09-13T01:57:59.023Z,6.70
2018-09-13T02:00:02.591Z,4.87
2018-09-13T02:02:06.278Z,8.23
2018-09-13T02:04:09.835Z,7.43
2018-09-13T02:06:13.446Z,6.07
2018-09-13T02:08:17.124Z,7.13
2018-09-13T02:10:20.645Z,9.13
2018-09-13T02:12:24.352Z,7.10
2018-09-13T02:14:27.964Z,7.83
2018-09-13T02:16:31.709Z,10.23
2018-09-13T02:18:35.408Z,11.40
2018-09-13T02:20:38.949Z,8.40
2018-09-13T02:22:42.784Z,8.17
2018-09-13T02:24:46.310Z,8.90
2018-09-13T02:26:49.879Z,9.63
2018-09-13T02:28:53.578Z,7.47
2018-09-13T02:30:57.111Z,7.23
2018-09-13T02:33:00.713Z,8.10
2018-09-13T02:35:04.604Z,8.37
2018-09-13T02:37:08.181Z,10.53
2018-09-13T02:39:11.798Z,7.23
2018-09-13T02:41:15.336Z,8.50
2018-09-13T02:43:18.848Z,7.07
2018-09-13T02:45:22.384Z,6.07
2018-09-13T02:47:25.933Z,7.33
2018-09-13T02:49:29.508Z,7.87
2018-09-13T02:51:33.117Z,7.57
2018-09-13T02:53:36.640Z,9.70
2018-09-13T02:55:40.401Z,7.73
2018-09-13T02:57:43.919Z,8.73
2018-09-13T02:59:47.432Z,10.97
2018-09-13T03:01:50.981Z,9.67
2018-09-13T03:03:54.566Z,9.37
2018-09-13T03:05:58.124Z,9.00
2018-09-13T03:08:01.978Z,9.37
2018-09-13T03:10:05.646Z,10.83
2018-09-13T03:12:09.733Z,10.67
2018-09-13T03:14:13.712Z,7.50
2018-09-13T03:16:17.309Z,11.17
2018-09-13T03:18:20.981Z,7.60
2018-09-13T03:20:24.707Z,10.57
2018-09-13T03:22:28.268Z,8.17
2018-09-13T03:24:31.803Z,10.27
2018-09-13T03:26:35.347Z,6.93
2018-09-13T03:28:39.119Z,8.53
2018-09-13T03:30:42.848Z,11.07
2018-09-13T03:32:46.391Z,10.53
2018-09-13T03:34:50.010Z,10.47
2018-09-13T03:36:53.606Z,8.43
2018-09-13T03:38:57.159Z,9.33
2018-09-13T03:41:00.907Z,11.07
2018-09-13T03:43:04.464Z,9.57
2018-09-13T03:45:08.161Z,10.37
2018-09-13T03:47:11.794Z,9.47
2018-09-13T03:49:15.510Z,8.80
2018-09-13T03:51:19.108Z,9.30
2018-09-13T03:53:22.818Z,6.90
2018-09-13T03:55:26.583Z,9.47
2018-09-13T03:57:30.216Z,7.17
2018-09-13T03:59:33.919Z,9.70
2018-09-13T04:01:37.592Z,12.53
2018-09-13T04:03:41.202Z,8.60
2018-09-13T04:05:44.886Z,8.90
2018-09-13T04:07:48.416Z,11.90
2018-09-13T04:09:52.002Z,7.33
2018-09-13T04:11:55.652Z,8.57
2018-09-13T04:13:59.282Z,11.07
2018-09-13T04:16:02.999Z,6.50
2018-09-13T04:18:06.650Z,12.03
2018-09-13T04:20:10.246Z,7.63
2018-09-13T04:22:14.614Z,8.93
2018-09-13T04:24:18.161Z,8.43
2018-09-13T04:26:21.735Z,8.73
2018-09-13T04:28:25.285Z,9.77
2018-09-13T04:30:29.038Z,8.30
2018-09-13T04:32:32.619Z,9.73
2018-09-13T04:34:36.256Z,8.43
2018-09-13T04:36:39.759Z,13.63
2018-09-13T04:38:43.280Z,10.77
2018-09-13T04:40:46.797Z,7.77
2018-09-13T04:42:50.367Z,9.83
2018-09-13T04:44:54.048Z,7.13
2018-09-13T04:46:57.544Z,8.10
2018-09-13T04:49:01.230Z,10.40
2018-09-13T04:51:04.763Z,8.73
2018-09-13T04:53:08.391Z,9.17
2018-09-13T04:55:11.944Z,8.57
2018-09-13T04:57:15.729Z,10.83
2018-09-13T04:59:19.252Z,12.17
2018-09-13T05:01:22.794Z,11.80
2018-09-13T05:03:26.363Z,10.90
2018-09-13T05:05:30.025Z,8.73
2018-09-13T05:07:33.575Z,12.37
2018-09-13T05:09:37.139Z,8.47
2018-09-13T05:11:40.833Z,10.43
2018-09-13T05:13:45.354Z,9.60
2018-09-13T05:15:49.000Z,7.50
2018-09-13T05:17:52.521Z,9.70
2018-09-13T05:19:56.116Z,9.97
2018-09-13T05:21:59.631Z,17.67
2018-09-13T05:24:03.382Z,12.23
2018-09-13T05:26:06.882Z,15.47
2018-09-13T05:28:10.432Z,11.33
2018-09-13T05:30:14.216Z,8.83
2018-09-13T05:32:17.761Z,13.33
2018-09-13T05:34:21.332Z,11.70
2018-09-13T05:36:24.920Z,11.73
2018-09-13T05:38:28.413Z,12.77
2018-09-13T05:40:32.141Z,9.87
2018-09-13T05:42:35.640Z,10.73
2018-09-13T05:44:39.233Z,14.17
2018-09-13T05:46:42.753Z,11.87
2018-09-13T05:48:46.332Z,13.33
2018-09-13T05:50:49.864Z,12.93
2018-09-13T05:52:53.387Z,12.67
2018-09-13T05:54:56.983Z,14.50
2018-09-13T05:57:00.591Z,12.17
2018-09-13T05:59:04.190Z,15.90
2018-09-13T06:01:07.839Z,9.83
2018-09-13T06:03:11.403Z,17.80
2018-09-13T06:05:15.163Z,15.90
2018-09-13T06:07:18.769Z,25.37
2018-09-13T06:09:22.260Z,19.17
2018-09-13T06:11:25.851Z,29.80
2018-09-13T06:13:29.431Z,54.67
2018-09-13T06:15:32.898Z,30.77
2018-09-13T06:17:36.490Z,33.27
2018-09-13T06:19:40.013Z,35.07
2018-09-13T06:21:43.590Z,36.77
2018-09-13T06:23:47.152Z,24.10
2018-09-13T06:25:50.659Z,39.37
2018-09-13T06:27:54.264Z,42.70
2018-09-13T06:29:57.941Z,35.30
2018-09-13T06:32:01.461Z,31.77
2018-09-13T06:34:05.039Z,39.50
2018-09-13T06:36:08.672Z,39.00
2018-09-13T06:38:12.341Z,26.57
2018-09-13T06:40:15.995Z,36.37
2018-09-13T06:42:19.562Z,30.37
2018-09-13T06:44:23.233Z,29.33
2018-09-13T06:46:26.770Z,23.87
2018-09-13T06:48:30.327Z,36.67
2018-09-13T06:50:33.857Z,33.87
2018-09-13T06:52:37.544Z,28.33
2018-09-13T06:54:41.145Z,18.53
2018-09-13T06:56:44.771Z,27.23
2018-09-13T06:58:48.308Z,18.83
2018-09-13T07:00:51.849Z,27.17
2018-09-13T07:02:55.366Z,20.03
2018-09-13T07:04:59.021Z,14.87
2018-09-13T07:07:03.304Z,12.63
2018-09-13T07:09:10.088Z,17.43
2018-09-13T07:11:13.666Z,12.03
2018-09-13T07:13:17.224Z,11.97
2018-09-13T07:15:20.744Z,16.83
2018-09-13T07:17:24.268Z,14.10
2018-09-13T07:19:27.962Z,16.97
2018-09-13T07:21:31.495Z,13.13
2018-09-13T07:23:35.065Z,13.57
2018-09-13T07:25:38.529Z,12.00
2018-09-13T07:27:42.349Z,12.90
2018-09-13T07:29:45.900Z,16.57
2018-09-13T07:31:49.753Z,13.40
2018-09-13T07:33:53.346Z,15.70
2018-09-13T07:35:56.900Z,16.93
2018-09-13T07:38:00.411Z,11.93
2018-09-13T07:40:04.121Z,13.13
2018-09-13T07:42:07.696Z,14.33
2018-09-13T07:44:11.342Z,11.70
2018-09-13T07:46:14.843Z,15.07
2018-09-13T07:48:18.418Z,14.27
2018-09-13T07:50:21.906Z,14.40
2018-09-13T07:52:25.459Z,14.73
2018-09-13T07:54:31.921Z,14.97
2018-09-13T07:56:35.692Z,16.77
2018-09-13T07:58:39.287Z,14.23
2018-09-13T08:00:42.811Z,16.17
2018-09-13T08:02:46.351Z,12.80
2018-09-13T08:04:49.952Z,15.67
2018-09-13T08:06:53.713Z,14.43
2018-09-13T08:08:57.233Z,13.97
2018-09-13T08:11:00.771Z,15.07
2018-09-13T08:13:04.337Z,16.93
2018-09-13T08:15:07.931Z,18.17
2018-09-13T08:17:11.462Z,11.77
2018-09-13T08:19:15.396Z,17.87
2018-09-13T08:21:18.983Z,18.67
2018-09-13T08:23:22.536Z,16.77
2018-09-13T08:25:26.260Z,15.57
2018-09-13T08:27:29.813Z,10.43
2018-09-13T08:29:33.533Z,13.10
2018-09-13T08:31:37.089Z,14.27
2018-09-13T08:33:40.804Z,12.40
2018-09-13T08:35:44.345Z,12.57
2018-09-13T08:37:47.847Z,12.00
2018-09-13T08:39:51.443Z,9.67
2018-09-13T08:41:54.929Z,12.23
2018-09-13T08:43:58.540Z,14.27
2018-09-13T08:46:02.184Z,14.87
2018-09-13T08:48:05.819Z,11.90
2018-09-13T08:50:09.368Z,16.37
2018-09-13T08:52:13.171Z,12.00
2018-09-13T08:54:16.543Z,14.00
2018-09-13T08:56:20.066Z,14.20
2018-09-13T08:58:23.656Z,10.33
2018-09-13T09:00:27.267Z,15.17
2018-09-13T09:02:30.913Z,15.73
2018-09-13T09:04:34.401Z,13.53
2018-09-13T09:06:38.028Z,13.90
2018-09-13T09:08:41.581Z,11.97
2018-09-13T09:10:45.135Z,13.07
2018-09-13T09:12:48.839Z,10.13
2018-09-13T09:14:52.335Z,11.53
2018-09-13T09:16:55.833Z,11.90
2018-09-13T09:18:59.513Z,11.73
2018-09-13T09:21:03.058Z,15.93
2018-09-13T09:23:06.593Z,9.03
2018-09-13T09:25:10.431Z,9.70
2018-09-13T09:27:13.960Z,11.97
2018-09-13T09:29:17.730Z,10.98
2018-09-13T09:31:21.255Z,12.07
2018-09-13T09:33:24.757Z,12.82
2018-09-13T09:35:28.293Z,8.00
2018-09-13T09:37:31.798Z,15.25
2018-09-13T09:39:35.423Z,9.23
2018-09-13T09:41:38.979Z,7.33
2018-09-13T09:43:42.731Z,11.73
2018-09-13T09:45:46.297Z,18.07
2018-09-13T09:47:49.862Z,12.73
2018-09-13T09:49:56.425Z,9.28
2018-09-13T09:52:00.075Z,14.30
2018-09-13T09:54:03.638Z,13.45
2018-09-13T09:56:07.482Z,14.18
2018-09-13T09:58:10.966Z,7.78
2018-09-13T10:00:14.550Z,8.95
2018-09-13T10:02:19.939Z,10.90
2018-09-13T10:04:23.644Z,8.60
2018-09-13T10:06:27.428Z,9.38
2018-09-13T10:08:30.981Z,7.00
2018-09-13T10:10:34.639Z,8.23
2018-09-13T10:12:38.356Z,7.37
2018-09-13T10:14:42.056Z,7.58
2018-09-13T10:16:50.846Z,6.75
2018-09-13T10:18:59.855Z,8.45
2018-09-13T10:22:09.268Z,11.63
2018-09-13T10:24:18.184Z,7.75
2018-09-13T10:26:26.858Z,7.05
2018-09-13T10:28:35.805Z,7.67
2018-09-13T10:30:44.569Z,11.25
2018-09-13T10:32:53.293Z,10.98
2018-09-13T10:35:02.127Z,6.00
2018-09-13T10:37:11.056Z,5.95
2018-09-13T10:39:19.996Z,9.88
2018-09-13T10:41:28.850Z,6.97
2018-09-13T10:43:37.693Z,6.05
2018-09-13T10:45:46.711Z,6.67
2018-09-13T10:47:56.929Z,7.62
2018-09-13T10:50:04.479Z,14.58
2018-09-13T10:52:15.398Z,5.83
2018-09-13T10:54:31.967Z,11.40
2018-09-13T10:56:35.702Z,7.97
2018-09-13T10:58:39.313Z,6.33
2018-09-13T11:00:43.052Z,9.68
2018-09-13T11:02:46.597Z,5.33
2018-09-13T11:04:50.263Z,8.60
2018-09-13T11:06:53.777Z,7.00
2018-09-13T11:08:57.318Z,8.48
2018-09-13T11:11:00.971Z,6.55
2018-09-13T11:13:08.817Z,5.35
2018-09-13T11:15:17.811Z,7.45
2018-09-13T11:17:23.165Z,5.80
2018-09-13T11:19:26.739Z,6.25
2018-09-13T11:21:30.226Z,5.85
2018-09-13T11:23:33.837Z,7.03
2018-09-13T11:25:37.475Z,6.65
2018-09-13T11:27:41.035Z,10.32
2018-09-13T11:29:45.193Z,6.80
2018-09-13T11:31:48.741Z,8.10
2018-09-13T11:33:52.338Z,5.10
2018-09-13T11:35:55.964Z,5.58
2018-09-13T11:37:59.515Z,6.03
2018-09-13T11:40:03.089Z,7.70
2018-09-13T11:42:06.669Z,5.37
2018-09-13T11:44:10.384Z,4.60
2018-09-13T11:46:13.941Z,5.22
2018-09-13T11:48:17.646Z,4.83
2018-09-13T11:50:21.210Z,3.58
2018-09-13T11:52:25.008Z,4.65
2018-09-13T11:54:28.507Z,4.37
2018-09-13T11:56:32.130Z,7.05
2018-09-13T11:58:35.833Z,5.17
2018-09-13T12:00:39.679Z,10.03
2018-09-13T12:02:43.230Z,4.62
2018-09-13T12:04:46.859Z,5.17
2018-09-13T12:06:50.476Z,4.22
2018-09-13T12:08:54.043Z,5.28
2018-09-13T12:10:57.617Z,8.95
2018-09-13T12:13:01.174Z,9.30
2018-09-13T12:15:04.939Z,7.45
2018-09-13T12:17:08.594Z,6.05
2018-09-13T12:19:12.171Z,7.17
2018-09-13T12:21:15.653Z,10.08
2018-09-13T12:23:19.183Z,7.35
2018-09-13T12:25:23.008Z,10.08
2018-09-13T12:27:26.619Z,10.00
2018-09-13T12:29:30.432Z,6.45
2018-09-13T12:31:34.050Z,6.40
2018-09-13T12:33:37.599Z,7.08
2018-09-13T12:35:41.141Z,5.80
2018-09-13T12:37:44.646Z,7.20
2018-09-13T12:39:48.165Z,5.60
2018-09-13T12:41:51.804Z,8.25
2018-09-13T12:43:55.533Z,7.00
2018-09-13T12:45:59.118Z,8.68
2018-09-13T12:48:02.632Z,9.20
2018-09-13T12:50:06.633Z,5.58
2018-09-13T12:52:10.208Z,6.17
2018-09-13T12:54:13.754Z,6.60
2018-09-13T12:56:17.504Z,6.55
2018-09-13T12:58:21.110Z,8.60
2018-09-13T13:00:24.659Z,6.83
2018-09-13T13:02:28.191Z,8.45
2018-09-13T13:04:31.737Z,8.48
2018-09-13T13:06:35.346Z,7.53
2018-09-13T13:08:39.043Z,8.23
2018-09-13T13:10:42.761Z,7.65
2018-09-13T13:12:46.296Z,9.60
2018-09-13T13:14:49.870Z,10.53
2018-09-13T13:16:53.439Z,7.62
2018-09-13T13:18:57.003Z,8.23
2018-09-13T13:21:00.626Z,7.60
2018-09-13T13:23:04.128Z,9.23
2018-09-13T13:25:07.805Z,5.12
2018-09-13T13:27:11.347Z,9.53
2018-09-13T13:29:14.881Z,6.67
2018-09-13T13:31:18.523Z,9.20
2018-09-13T13:33:22.276Z,7.22
2018-09-13T13:35:25.864Z,8.03
2018-09-13T13:37:29.384Z,8.88
2018-09-13T13:39:32.960Z,7.35
2018-09-13T13:41:36.600Z,7.40
2018-09-13T13:43:40.213Z,9.08
2018-09-13T13:45:43.751Z,8.28
2018-09-13T13:47:47.624Z,8.95
2018-09-13T13:49:51.223Z,5.05
2018-09-13T13:51:54.847Z,8.48
2018-09-13T13:53:58.375Z,4.67
2018-09-13T13:56:01.909Z,4.53
2018-09-13T13:58:05.435Z,6.30
2018-09-13T14:00:09.225Z,7.20
2018-09-13T14:02:12.781Z,5.10
2018-09-13T14:04:16.312Z,4.40
2018-09-13T14:06:19.843Z,4.55
2018-09-13T14:08:23.432Z,6.30
2018-09-13T14:10:27.056Z,4.67
2018-09-13T14:12:30.560Z,5.53
2018-09-13T14:14:34.093Z,4.07
2018-09-13T14:16:38.229Z,5.75
2018-09-13T14:18:41.821Z,3.77
2018-09-13T14:20:45.538Z,7.10
2018-09-13T14:22:48.981Z,4.95
2018-09-13T14:24:52.564Z,7.10
2018-09-13T14:26:56.121Z,9.65
2018-09-13T14:28:59.654Z,7.45
2018-09-13T14:31:03.496Z,8.28
2018-09-13T14:33:07.017Z,6.85
2018-09-13T14:35:10.575Z,5.65
2018-09-13T14:37:14.099Z,6.80
2018-09-13T14:39:17.696Z,6.12
2018-09-13T14:41:21.400Z,9.08
2018-09-13T14:43:25.013Z,5.40
2018-09-13T14:45:28.547Z,7.22
2018-09-13T14:47:32.216Z,8.25
2018-09-13T14:49:35.765Z,9.85
2018-09-13T14:51:39.303Z,9.18
2018-09-13T14:53:43.076Z,6.85
2018-09-13T14:55:46.679Z,10.93
2018-09-13T14:57:50.304Z,8.33
2018-09-13T14:59:53.831Z,10.88
2018-09-13T15:01:57.610Z,9.33
2018-09-13T15:04:01.199Z,9.35
2018-09-13T15:06:04.882Z,7.60
2018-09-13T15:08:08.490Z,8.13
2018-09-13T15:10:12.217Z,12.47
2018-09-13T15:12:15.984Z,12.28
2018-09-13T15:14:19.557Z,9.05
2018-09-13T15:16:23.123Z,8.48
2018-09-13T15:18:26.748Z,7.47
2018-09-13T15:20:30.574Z,7.57
2018-09-13T15:22:34.149Z,11.00
2018-09-13T15:24:37.900Z,8.53
2018-09-13T15:26:41.348Z,7.30
2018-09-13T15:28:44.935Z,7.80
2018-09-13T15:30:48.641Z,7.62
2018-09-13T15:32:52.143Z,8.30
2018-09-13T15:34:55.959Z,8.28
2018-09-13T15:36:59.938Z,8.10
2018-09-13T15:39:03.765Z,6.37
2018-09-13T15:41:07.377Z,7.00
2018-09-13T15:43:11.002Z,7.57
2018-09-13T15:45:14.549Z,8.10
2018-09-13T15:47:18.363Z,7.15
2018-09-13T15:49:21.990Z,9.40
2018-09-13T15:51:25.643Z,7.35
2018-09-13T15:53:29.280Z,8.90
2018-09-13T15:55:32.856Z,8.38
2018-09-13T15:57:36.428Z,7.15
2018-09-13T15:59:39.962Z,6.45
2018-09-13T16:01:43.615Z,5.33
2018-09-13T16:03:47.308Z,8.60
2018-09-13T16:05:51.070Z,6.00
2018-09-13T16:07:54.807Z,8.45
2018-09-13T16:09:58.351Z,6.85
2018-09-13T16:12:02.043Z,8.63
2018-09-13T16:14:05.594Z,7.15
2018-09-13T16:16:09.457Z,5.30
2018-09-13T16:18:13.301Z,7.12
2018-09-13T16:20:17.071Z,7.20
2018-09-13T16:22:20.587Z,8.28
2018-09-13T16:24:24.229Z,8.53
2018-09-13T16:26:28.189Z,5.42
2018-09-13T16:28:31.652Z,9.37
2018-09-13T16:30:38.051Z,6.97
2018-09-13T16:32:41.807Z,7.00
2018-09-13T16:34:45.374Z,7.27
2018-09-13T16:36:55.085Z,5.87
2018-09-13T16:39:03.762Z,7.00
2018-09-13T16:41:12.735Z,4.97
2018-09-13T16:43:17.090Z,5.70
2018-09-13T16:45:21.605Z,6.20
2018-09-13T16:47:32.365Z,7.50
2018-09-13T16:49:38.079Z,6.87
2018-09-13T16:51:41.643Z,9.67
2018-09-13T16:53:45.178Z,8.53
2018-09-13T16:55:48.754Z,9.17
2018-09-13T16:57:52.542Z,8.97
2018-09-13T16:59:56.098Z,6.92
2018-09-13T17:01:59.994Z,7.50
2018-09-13T17:04:10.278Z,11.03
2018-09-13T17:06:13.808Z,6.57
2018-09-13T17:08:17.531Z,6.73
2018-09-13T17:10:21.043Z,8.23
2018-09-13T17:12:24.660Z,6.47
2018-09-13T17:14:28.198Z,6.90
2018-09-13T17:16:31.721Z,6.53
2018-09-13T17:18:35.456Z,7.33
2018-09-13T17:20:39.002Z,5.73
2018-09-13T17:22:42.733Z,6.17
2018-09-13T17:24:46.279Z,8.28
2018-09-13T17:26:49.783Z,9.47
2018-09-13T17:28:53.442Z,6.53
2018-09-13T17:30:57.093Z,8.57
2018-09-13T17:33:00.680Z,8.87
2018-09-13T17:35:04.280Z,7.90
2018-09-13T17:37:07.930Z,7.70
2018-09-13T17:39:13.039Z,8.97
2018-09-13T17:41:16.766Z,10.17
2018-09-13T17:43:20.346Z,12.20
2018-09-13T17:45:23.931Z,7.83
2018-09-13T17:47:27.642Z,7.87
2018-09-13T17:49:31.274Z,9.97
2018-09-13T17:51:35.011Z,11.63
2018-09-13T17:53:38.973Z,10.00
2018-09-13T17:55:42.690Z,12.83
2018-09-13T17:57:46.507Z,8.47
2018-09-13T17:59:50.177Z,13.30
2018-09-13T18:01:53.752Z,9.60
2018-09-13T18:03:57.425Z,9.73
2018-09-13T18:06:01.070Z,11.60
2018-09-13T18:08:04.720Z,9.57
2018-09-13T18:10:08.606Z,11.83
2018-09-13T18:12:12.239Z,9.47
2018-09-13T18:14:15.934Z,7.93
2018-09-13T18:16:19.651Z,7.90
2018-09-13T18:18:23.353Z,8.13
2018-09-13T18:20:26.982Z,8.90
2018-09-13T18:22:30.510Z,9.07
2018-09-13T18:24:34.120Z,12.30
2018-09-13T18:26:37.788Z,8.67
2018-09-13T18:28:41.372Z,13.47
2018-09-13T18:30:44.992Z,15.47
2018-09-13T18:32:48.539Z,9.80
2018-09-13T18:34:52.264Z,16.97
2018-09-13T18:36:55.907Z,11.33
2018-09-13T18:38:59.657Z,10.47
2018-09-13T18:41:03.279Z,9.07
2018-09-13T18:43:07.003Z,13.33
2018-09-13T18:45:10.617Z,11.40
2018-09-13T18:47:14.636Z,14.40
2018-09-13T18:49:18.385Z,12.50
2018-09-13T18:51:22.182Z,11.30
2018-09-13T18:53:25.855Z,10.03
2018-09-13T18:55:29.519Z,13.30
2018-09-13T18:57:33.050Z,10.17
2018-09-13T18:59:37.202Z,11.33
2018-09-13T19:01:40.737Z,9.80
2018-09-13T19:03:44.448Z,11.17
2018-09-13T19:05:48.116Z,14.47
2018-09-13T19:07:51.701Z,11.10
2018-09-13T19:09:55.438Z,16.70
2018-09-13T19:11:59.039Z,15.03
2018-09-13T19:14:02.801Z,13.97
2018-09-13T19:16:06.715Z,11.70
2018-09-13T19:18:10.485Z,13.27
2018-09-13T19:20:14.044Z,13.97
2018-09-13T19:22:17.697Z,14.53
2018-09-13T19:24:21.446Z,11.33
2018-09-13T19:26:25.085Z,12.90
2018-09-13T19:28:28.676Z,14.63
2018-09-13T19:30:32.224Z,15.13
2018-09-13T19:32:35.964Z,13.83
2018-09-13T19:34:39.617Z,12.63
2018-09-13T19:36:43.315Z,13.57
2018-09-13T19:38:47.040Z,13.50
2018-09-13T19:40:50.491Z,13.43
2018-09-13T19:42:54.122Z,13.27
2018-09-13T19:44:57.776Z,18.23
2018-09-13T19:47:01.375Z,17.10
2018-09-13T19:49:05.070Z,18.33
2018-09-13T19:51:08.664Z,14.87
2018-09-13T19:53:12.380Z,15.93
2018-09-13T19:55:15.995Z,15.90
2018-09-13T19:57:19.851Z,17.60
2018-09-13T19:59:23.516Z,18.00
2018-09-13T20:01:27.316Z,22.53
2018-09-13T20:03:30.908Z,17.77
2018-09-13T20:05:34.575Z,18.67
2018-09-13T20:07:38.203Z,17.80
2018-09-13T20:09:41.887Z,20.67
2018-09-13T20:11:45.542Z,18.10
2018-09-13T20:13:49.194Z,19.87
2018-09-13T20:15:52.972Z,19.70
2018-09-13T20:17:56.496Z,18.43
2018-09-13T20:20:00.011Z,20.63
2018-09-13T20:22:03.755Z,19.60
2018-09-13T20:24:07.320Z,19.40
2018-09-13T20:26:11.122Z,17.83
2018-09-13T20:28:14.716Z,17.70
2018-09-13T20:30:18.324Z,18.00
2018-09-13T20:32:21.958Z,15.40
2018-09-13T20:34:25.700Z,13.07
2018-09-13T20:36:29.305Z,11.30
2018-09-13T20:38:32.911Z,10.13
2018-09-13T20:40:36.458Z,9.70
2018-09-13T20:42:40.179Z,11.20
2018-09-13T20:44:43.789Z,10.17
2018-09-13T20:46:47.529Z,12.80
2018-09-13T20:48:51.298Z,8.83
2018-09-13T20:50:54.880Z,11.47
2018-09-13T20:52:58.479Z,10.30
2018-09-13T20:55:02.118Z,8.93
2018-09-13T20:57:05.799Z,8.93
2018-09-13T20:59:09.398Z,9.57
2018-09-13T21:01:12.973Z,10.13
2018-09-13T21:03:16.655Z,12.40
2018-09-13T21:05:20.448Z,12.23
2018-09-13T21:07:24.048Z,10.87
2018-09-13T21:09:27.756Z,10.93
2018-09-13T21:11:31.312Z,13.77
2018-09-13T21:13:35.007Z,15.90
2018-09-13T21:15:38.633Z,16.53
2018-09-13T21:17:42.253Z,20.37
2018-09-13T21:19:45.832Z,19.43
2018-09-13T21:21:49.656Z,18.67
2018-09-13T21:23:53.294Z,20.67
2018-09-13T21:25:57.847Z,18.60
2018-09-13T21:28:01.413Z,23.93
2018-09-13T21:30:05.775Z,23.00
2018-09-13T21:32:09.645Z,24.87
2018-09-13T21:34:13.215Z,24.40
2018-09-13T21:36:16.995Z,22.50
2018-09-13T21:38:20.547Z,27.63
2018-09-13T21:40:24.261Z,23.33
2018-09-13T21:42:28.064Z,19.77
2018-09-13T21:44:31.706Z,23.40
2018-09-13T21:46:35.182Z,21.00
2018-09-13T21:48:38.744Z,20.97
2018-09-13T21:50:42.416Z,24.10
2018-09-13T21:52:46.072Z,23.03
2018-09-13T21:54:49.643Z,20.83
2018-09-13T21:56:53.253Z,19.70
2018-09-13T21:58:56.932Z,20.90
2018-09-13T22:01:00.462Z,22.77
2018-09-13T22:03:04.021Z,23.43
2018-09-13T22:05:07.977Z,20.43
2018-09-13T22:07:11.614Z,21.53
2018-09-13T22:09:16.596Z,24.27
2018-09-13T22:11:20.375Z,24.80
2018-09-13T22:13:24.062Z,24.03
2018-09-13T22:15:27.776Z,23.20
2018-09-13T22:17:31.742Z,24.67
2018-09-13T22:19:35.565Z,22.73
2018-09-13T22:21:39.158Z,22.67
2018-09-13T22:23:42.809Z,27.80
2018-09-13T22:25:46.380Z,25.93
2018-09-13T22:27:49.945Z,24.53
2018-09-13T22:29:53.559Z,22.60
2018-09-13T22:31:57.193Z,23.83
2018-09-13T22:34:00.948Z,20.70
2018-09-13T22:36:04.540Z,24.57
2018-09-13T22:38:08.302Z,24.97
2018-09-13T22:40:12.024Z,27.47
2018-09-13T22:42:15.581Z,24.37
2018-09-13T22:44:19.216Z,23.90
2018-09-13T22:46:23.745Z,23.77
2018-09-13T22:48:27.303Z,27.13
2018-09-13T22:50:30.959Z,29.27
2018-09-13T22:52:34.626Z,27.33
2018-09-13T22:54:38.565Z,24.83
2018-09-13T22:56:42.151Z,27.47
2018-09-13T22:58:45.991Z,27.83
2018-09-13T23:00:53.466Z,28.30
2018-09-13T23:02:56.980Z,27.50
2018-09-13T23:05:00.624Z,29.47
2018-09-13T23:07:04.181Z,25.87
2018-09-13T23:09:09.560Z,26.30
2018-09-13T23:11:13.276Z,25.57
2018-09-13T23:13:16.966Z,28.47
2018-09-13T23:15:20.757Z,27.93
2018-09-13T23:17:24.455Z,26.47
2018-09-13T23:19:28.020Z,29.50
2018-09-13T23:21:31.621Z,26.43
2018-09-13T23:23:35.189Z,27.33
2018-09-13T23:25:38.766Z,26.13
2018-09-13T23:27:42.487Z,28.77
2018-09-13T23:29:46.220Z,28.77
2018-09-13T23:31:49.720Z,28.87
2018-09-13T23:33:53.336Z,30.63
2018-09-13T23:35:56.959Z,27.50
2018-09-13T23:38:00.523Z,28.37
2018-09-13T23:40:04.478Z,26.70
2018-09-13T23:42:08.038Z,28.13
2018-09-13T23:44:11.623Z,29.53
2018-09-13T23:46:15.322Z,31.47
2018-09-13T23:48:18.918Z,31.07
2018-09-13T23:50:22.509Z,27.17
2018-09-13T23:52:26.127Z,31.47
2018-09-13T23:54:29.731Z,30.60
2018-09-13T23:56:33.426Z,33.03
2018-09-13T23:58:37.267Z,30.97
